sensor_id;sensor_type;location;lat;lon;timestamp;temperature;humidity
25871;DHT22;13689;48.590;7.752;2022-11-20T00:01:38;9.80;85.80
25871;DHT22;13689;48.590;7.752;2022-11-20T00:04:04;9.80;85.70
25871;DHT22;13689;48.590;7.752;2022-11-20T00:06:29;9.80;85.80
25871;DHT22;13689;48.590;7.752;2022-11-20T00:08:56;9.80;86.70
25871;DHT22;13689;48.590;7.752;2022-11-20T00:11:22;9.80;85.80
25871;DHT22;13689;48.590;7.752;2022-11-20T00:13:48;9.80;85.80
25871;DHT22;13689;48.590;7.752;2022-11-20T00:16:15;9.80;85.80
25871;DHT22;13689;48.590;7.752;2022-11-20T00:18:41;9.80;85.80
25871;DHT22;13689;48.590;7.752;2022-11-20T00:21:09;9.80;85.80
25871;DHT22;13689;48.590;7.752;2022-11-20T00:23:35;9.80;85.80
25871;DHT22;13689;48.590;7.752;2022-11-20T00:26:06;9.80;85.90
25871;DHT22;13689;48.590;7.752;2022-11-20T00:28:32;9.70;86.20
25871;DHT22;13689;48.590;7.752;2022-11-20T00:31:05;9.70;85.80
25871;DHT22;13689;48.590;7.752;2022-11-20T00:33:31;9.70;85.90
25871;DHT22;13689;48.590;7.752;2022-11-20T00:36:00;9.70;85.90
25871;DHT22;13689;48.590;7.752;2022-11-20T00:38:26;9.70;85.80
25871;DHT22;13689;48.590;7.752;2022-11-20T00:40:55;9.70;85.80
25871;DHT22;13689;48.590;7.752;2022-11-20T00:43:21;9.70;85.70
25871;DHT22;13689;48.590;7.752;2022-11-20T00:45:46;9.70;85.70
25871;DHT22;13689;48.590;7.752;2022-11-20T00:48:12;9.70;85.60
25871;DHT22;13689;48.590;7.752;2022-11-20T00:50:37;9.70;85.60
25871;DHT22;13689;48.590;7.752;2022-11-20T00:53:04;9.70;85.70
25871;DHT22;13689;48.590;7.752;2022-11-20T00:55:29;9.70;85.60
25871;DHT22;13689;48.590;7.752;2022-11-20T00:57:55;9.70;85.60
25871;DHT22;13689;48.590;7.752;2022-11-20T01:00:20;9.70;85.60
25871;DHT22;13689;48.590;7.752;2022-11-20T01:02:46;9.70;85.60
25871;DHT22;13689;48.590;7.752;2022-11-20T01:05:11;9.70;85.60
25871;DHT22;13689;48.590;7.752;2022-11-20T01:07:37;9.70;85.50
25871;DHT22;13689;48.590;7.752;2022-11-20T01:10:02;9.60;85.50
25871;DHT22;13689;48.590;7.752;2022-11-20T01:12:28;9.60;85.50
25871;DHT22;13689;48.590;7.752;2022-11-20T01:14:54;9.60;85.50
25871;DHT22;13689;48.590;7.752;2022-11-20T01:17:19;9.50;85.50
25871;DHT22;13689;48.590;7.752;2022-11-20T01:19:48;9.50;85.50
25871;DHT22;13689;48.590;7.752;2022-11-20T01:22:14;9.50;85.60
25871;DHT22;13689;48.590;7.752;2022-11-20T01:24:39;9.50;85.60
25871;DHT22;13689;48.590;7.752;2022-11-20T01:27:05;9.50;85.60
25871;DHT22;13689;48.590;7.752;2022-11-20T01:29:30;9.40;85.40
25871;DHT22;13689;48.590;7.752;2022-11-20T01:31:55;9.40;85.50
25871;DHT22;13689;48.590;7.752;2022-11-20T01:34:21;9.30;85.70
25871;DHT22;13689;48.590;7.752;2022-11-20T01:36:48;9.30;85.90
25871;DHT22;13689;48.590;7.752;2022-11-20T01:39:15;9.40;86.00
25871;DHT22;13689;48.590;7.752;2022-11-20T01:41:41;9.30;86.00
25871;DHT22;13689;48.590;7.752;2022-11-20T01:47:10;9.30;86.00
25871;DHT22;13689;48.590;7.752;2022-11-20T01:49:41;9.40;86.00
25871;DHT22;13689;48.590;7.752;2022-11-20T01:52:11;9.40;86.00
25871;DHT22;13689;48.590;7.752;2022-11-20T01:54:40;9.40;85.80
25871;DHT22;13689;48.590;7.752;2022-11-20T01:57:08;9.30;85.80
25871;DHT22;13689;48.590;7.752;2022-11-20T01:59:35;9.30;85.80
25871;DHT22;13689;48.590;7.752;2022-11-20T02:02:05;9.20;85.80
25871;DHT22;13689;48.590;7.752;2022-11-20T02:04:30;9.20;85.90
25871;DHT22;13689;48.590;7.752;2022-11-20T02:07:00;9.20;86.00
25871;DHT22;13689;48.590;7.752;2022-11-20T02:09:26;9.10;86.10
25871;DHT22;13689;48.590;7.752;2022-11-20T02:11:52;9.10;86.20
25871;DHT22;13689;48.590;7.752;2022-11-20T02:14:18;9.10;86.30
25871;DHT22;13689;48.590;7.752;2022-11-20T02:16:45;9.10;86.30
25871;DHT22;13689;48.590;7.752;2022-11-20T02:19:14;9.10;87.20
25871;DHT22;13689;48.590;7.752;2022-11-20T02:21:49;9.20;86.60
25871;DHT22;13689;48.590;7.752;2022-11-20T02:24:18;9.20;86.40
25871;DHT22;13689;48.590;7.752;2022-11-20T02:26:48;9.20;86.30
25871;DHT22;13689;48.590;7.752;2022-11-20T02:29:16;9.20;86.20
25871;DHT22;13689;48.590;7.752;2022-11-20T02:31:43;9.30;86.20
25871;DHT22;13689;48.590;7.752;2022-11-20T02:34:10;9.40;86.10
25871;DHT22;13689;48.590;7.752;2022-11-20T02:36:36;9.30;86.00
25871;DHT22;13689;48.590;7.752;2022-11-20T02:39:02;9.40;86.10
25871;DHT22;13689;48.590;7.752;2022-11-20T02:41:32;9.40;86.00
25871;DHT22;13689;48.590;7.752;2022-11-20T02:43:58;9.40;85.90
25871;DHT22;13689;48.590;7.752;2022-11-20T02:46:23;9.40;85.90
25871;DHT22;13689;48.590;7.752;2022-11-20T02:48:49;9.40;85.90
25871;DHT22;13689;48.590;7.752;2022-11-20T02:51:14;9.40;85.80
25871;DHT22;13689;48.590;7.752;2022-11-20T02:53:39;9.50;86.60
25871;DHT22;13689;48.590;7.752;2022-11-20T02:56:05;9.40;85.60
25871;DHT22;13689;48.590;7.752;2022-11-20T02:58:31;9.50;85.70
25871;DHT22;13689;48.590;7.752;2022-11-20T03:00:56;9.50;85.70
25871;DHT22;13689;48.590;7.752;2022-11-20T03:03:22;9.40;85.60
25871;DHT22;13689;48.590;7.752;2022-11-20T03:05:49;9.40;85.50
25871;DHT22;13689;48.590;7.752;2022-11-20T03:08:14;9.40;85.50
25871;DHT22;13689;48.590;7.752;2022-11-20T03:10:39;9.40;85.50
25871;DHT22;13689;48.590;7.752;2022-11-20T03:13:05;9.40;85.50
25871;DHT22;13689;48.590;7.752;2022-11-20T03:15:30;9.40;85.50
25871;DHT22;13689;48.590;7.752;2022-11-20T03:17:56;9.40;85.50
25871;DHT22;13689;48.590;7.752;2022-11-20T03:20:22;9.40;85.50
25871;DHT22;13689;48.590;7.752;2022-11-20T03:22:47;9.40;85.40
25871;DHT22;13689;48.590;7.752;2022-11-20T03:25:13;9.40;85.30
25871;DHT22;13689;48.590;7.752;2022-11-20T03:27:38;9.40;85.30
25871;DHT22;13689;48.590;7.752;2022-11-20T03:30:04;9.40;85.20
25871;DHT22;13689;48.590;7.752;2022-11-20T03:32:30;9.40;85.40
25871;DHT22;13689;48.590;7.752;2022-11-20T03:34:56;9.40;85.30
25871;DHT22;13689;48.590;7.752;2022-11-20T03:37:22;9.40;85.10
25871;DHT22;13689;48.590;7.752;2022-11-20T03:39:47;9.50;85.30
25871;DHT22;13689;48.590;7.752;2022-11-20T03:42:13;9.50;85.20
25871;DHT22;13689;48.590;7.752;2022-11-20T03:44:57;9.50;85.20
25871;DHT22;13689;48.590;7.752;2022-11-20T03:47:22;9.50;85.00
25871;DHT22;13689;48.590;7.752;2022-11-20T03:49:48;9.50;85.00
25871;DHT22;13689;48.590;7.752;2022-11-20T03:52:13;9.40;85.00
25871;DHT22;13689;48.590;7.752;2022-11-20T03:54:38;9.50;85.10
25871;DHT22;13689;48.590;7.752;2022-11-20T03:57:04;9.50;85.00
25871;DHT22;13689;48.590;7.752;2022-11-20T03:59:30;9.50;85.00
25871;DHT22;13689;48.590;7.752;2022-11-20T04:01:55;9.40;84.80
25871;DHT22;13689;48.590;7.752;2022-11-20T04:04:20;9.40;85.00
25871;DHT22;13689;48.590;7.752;2022-11-20T04:06:46;9.40;85.00
25871;DHT22;13689;48.590;7.752;2022-11-20T04:09:12;9.50;85.00
25871;DHT22;13689;48.590;7.752;2022-11-20T04:11:39;9.40;84.90
25871;DHT22;13689;48.590;7.752;2022-11-20T04:14:05;9.40;84.90
25871;DHT22;13689;48.590;7.752;2022-11-20T04:16:32;9.40;85.00
25871;DHT22;13689;48.590;7.752;2022-11-20T04:18:59;9.40;84.90
25871;DHT22;13689;48.590;7.752;2022-11-20T04:21:25;9.40;84.90
25871;DHT22;13689;48.590;7.752;2022-11-20T04:23:51;9.50;85.00
25871;DHT22;13689;48.590;7.752;2022-11-20T04:26:18;9.40;84.70
25871;DHT22;13689;48.590;7.752;2022-11-20T04:28:43;9.40;84.70
25871;DHT22;13689;48.590;7.752;2022-11-20T04:31:10;9.40;84.70
25871;DHT22;13689;48.590;7.752;2022-11-20T04:33:35;9.40;84.70
25871;DHT22;13689;48.590;7.752;2022-11-20T04:36:02;9.30;84.70
25871;DHT22;13689;48.590;7.752;2022-11-20T04:38:28;9.40;84.80
25871;DHT22;13689;48.590;7.752;2022-11-20T04:40:57;9.30;84.70
25871;DHT22;13689;48.590;7.752;2022-11-20T04:43:23;9.30;84.70
25871;DHT22;13689;48.590;7.752;2022-11-20T04:45:56;9.30;84.70
25871;DHT22;13689;48.590;7.752;2022-11-20T04:48:21;9.30;84.70
25871;DHT22;13689;48.590;7.752;2022-11-20T04:50:47;9.30;84.70
25871;DHT22;13689;48.590;7.752;2022-11-20T04:53:12;9.30;84.60
25871;DHT22;13689;48.590;7.752;2022-11-20T04:55:38;9.30;84.60
25871;DHT22;13689;48.590;7.752;2022-11-20T04:58:04;9.30;84.60
25871;DHT22;13689;48.590;7.752;2022-11-20T05:00:29;9.30;84.40
25871;DHT22;13689;48.590;7.752;2022-11-20T05:02:54;9.30;84.40
25871;DHT22;13689;48.590;7.752;2022-11-20T05:05:20;9.30;84.30
25871;DHT22;13689;48.590;7.752;2022-11-20T05:07:45;9.30;84.30
25871;DHT22;13689;48.590;7.752;2022-11-20T05:10:11;9.30;84.40
25871;DHT22;13689;48.590;7.752;2022-11-20T05:12:36;9.30;84.30
25871;DHT22;13689;48.590;7.752;2022-11-20T05:15:02;9.30;84.20
25871;DHT22;13689;48.590;7.752;2022-11-20T05:17:27;9.20;84.00
25871;DHT22;13689;48.590;7.752;2022-11-20T05:19:53;9.20;84.10
25871;DHT22;13689;48.590;7.752;2022-11-20T05:22:18;9.20;84.10
25871;DHT22;13689;48.590;7.752;2022-11-20T05:24:44;9.20;84.80
25871;DHT22;13689;48.590;7.752;2022-11-20T05:27:09;9.20;84.00
25871;DHT22;13689;48.590;7.752;2022-11-20T05:29:35;9.20;84.00
25871;DHT22;13689;48.590;7.752;2022-11-20T05:32:00;9.20;84.00
25871;DHT22;13689;48.590;7.752;2022-11-20T05:34:26;9.20;84.00
25871;DHT22;13689;48.590;7.752;2022-11-20T05:36:51;9.20;84.00
25871;DHT22;13689;48.590;7.752;2022-11-20T05:39:17;9.30;84.00
25871;DHT22;13689;48.590;7.752;2022-11-20T05:41:42;9.20;83.80
25871;DHT22;13689;48.590;7.752;2022-11-20T05:44:10;9.20;83.80
25871;DHT22;13689;48.590;7.752;2022-11-20T05:46:35;9.30;83.90
25871;DHT22;13689;48.590;7.752;2022-11-20T05:49:01;9.30;83.90
25871;DHT22;13689;48.590;7.752;2022-11-20T05:51:26;9.30;83.70
25871;DHT22;13689;48.590;7.752;2022-11-20T05:53:52;9.30;83.80
25871;DHT22;13689;48.590;7.752;2022-11-20T05:56:18;9.30;83.70
25871;DHT22;13689;48.590;7.752;2022-11-20T05:58:44;9.30;83.60
25871;DHT22;13689;48.590;7.752;2022-11-20T06:03:36;9.30;83.70
25871;DHT22;13689;48.590;7.752;2022-11-20T06:06:02;9.30;83.60
25871;DHT22;13689;48.590;7.752;2022-11-20T06:08:28;9.30;83.60
25871;DHT22;13689;48.590;7.752;2022-11-20T06:10:53;9.30;83.50
25871;DHT22;13689;48.590;7.752;2022-11-20T06:13:19;9.30;83.60
25871;DHT22;13689;48.590;7.752;2022-11-20T06:15:48;9.30;83.40
25871;DHT22;13689;48.590;7.752;2022-11-20T06:18:14;9.30;83.50
25871;DHT22;13689;48.590;7.752;2022-11-20T06:20:40;9.30;83.40
25871;DHT22;13689;48.590;7.752;2022-11-20T06:23:05;9.20;83.40
25871;DHT22;13689;48.590;7.752;2022-11-20T06:25:31;9.30;83.50
25871;DHT22;13689;48.590;7.752;2022-11-20T06:27:56;9.30;83.50
25871;DHT22;13689;48.590;7.752;2022-11-20T06:30:22;9.20;83.50
25871;DHT22;13689;48.590;7.752;2022-11-20T06:32:47;9.20;83.60
25871;DHT22;13689;48.590;7.752;2022-11-20T06:35:13;9.20;83.80
25871;DHT22;13689;48.590;7.752;2022-11-20T06:37:38;9.10;84.10
25871;DHT22;13689;48.590;7.752;2022-11-20T06:40:04;9.10;84.30
25871;DHT22;13689;48.590;7.752;2022-11-20T06:42:29;9.20;84.60
25871;DHT22;13689;48.590;7.752;2022-11-20T06:44:55;9.20;84.60
25871;DHT22;13689;48.590;7.752;2022-11-20T06:47:20;9.20;84.70
25871;DHT22;13689;48.590;7.752;2022-11-20T06:49:46;9.20;84.70
25871;DHT22;13689;48.590;7.752;2022-11-20T06:52:11;9.20;84.80
25871;DHT22;13689;48.590;7.752;2022-11-20T06:54:37;9.20;85.00
25871;DHT22;13689;48.590;7.752;2022-11-20T06:57:02;9.20;85.10
25871;DHT22;13689;48.590;7.752;2022-11-20T06:59:28;9.10;85.20
25871;DHT22;13689;48.590;7.752;2022-11-20T07:01:53;9.10;85.40
25871;DHT22;13689;48.590;7.752;2022-11-20T07:04:19;9.10;85.50
25871;DHT22;13689;48.590;7.752;2022-11-20T07:06:44;9.10;85.70
25871;DHT22;13689;48.590;7.752;2022-11-20T07:09:10;9.10;85.90
25871;DHT22;13689;48.590;7.752;2022-11-20T07:11:35;9.10;86.10
25871;DHT22;13689;48.590;7.752;2022-11-20T07:14:01;9.10;86.40
25871;DHT22;13689;48.590;7.752;2022-11-20T07:16:26;9.10;86.50
25871;DHT22;13689;48.590;7.752;2022-11-20T07:18:52;9.10;86.50
25871;DHT22;13689;48.590;7.752;2022-11-20T07:21:17;9.10;86.70
25871;DHT22;13689;48.590;7.752;2022-11-20T07:23:43;9.10;86.70
25871;DHT22;13689;48.590;7.752;2022-11-20T07:26:09;9.10;86.90
25871;DHT22;13689;48.590;7.752;2022-11-20T07:28:38;9.10;87.10
25871;DHT22;13689;48.590;7.752;2022-11-20T07:31:04;9.10;87.30
25871;DHT22;13689;48.590;7.752;2022-11-20T07:33:31;9.10;87.30
25871;DHT22;13689;48.590;7.752;2022-11-20T07:36:00;9.10;87.40
25871;DHT22;13689;48.590;7.752;2022-11-20T07:38:25;9.10;87.40
25871;DHT22;13689;48.590;7.752;2022-11-20T07:40:54;9.10;87.60
25871;DHT22;13689;48.590;7.752;2022-11-20T07:43:21;9.10;87.70
25871;DHT22;13689;48.590;7.752;2022-11-20T07:45:46;9.20;87.80
25871;DHT22;13689;48.590;7.752;2022-11-20T07:48:11;9.20;87.80
25871;DHT22;13689;48.590;7.752;2022-11-20T07:50:37;9.10;87.80
25871;DHT22;13689;48.590;7.752;2022-11-20T07:53:03;9.10;87.90
25871;DHT22;13689;48.590;7.752;2022-11-20T07:55:29;9.10;88.00
25871;DHT22;13689;48.590;7.752;2022-11-20T07:57:54;9.20;88.10
25871;DHT22;13689;48.590;7.752;2022-11-20T08:00:21;9.20;88.10
25871;DHT22;13689;48.590;7.752;2022-11-20T08:02:46;9.20;88.10
25871;DHT22;13689;48.590;7.752;2022-11-20T08:05:12;9.20;88.10
25871;DHT22;13689;48.590;7.752;2022-11-20T08:07:38;9.20;88.20
25871;DHT22;13689;48.590;7.752;2022-11-20T08:10:04;9.20;88.40
25871;DHT22;13689;48.590;7.752;2022-11-20T08:12:30;9.20;88.50
25871;DHT22;13689;48.590;7.752;2022-11-20T08:15:14;9.20;88.50
25871;DHT22;13689;48.590;7.752;2022-11-20T08:17:39;9.30;88.50
25871;DHT22;13689;48.590;7.752;2022-11-20T08:20:05;9.30;88.40
25871;DHT22;13689;48.590;7.752;2022-11-20T08:22:30;9.30;88.40
25871;DHT22;13689;48.590;7.752;2022-11-20T08:24:56;9.40;88.40
25871;DHT22;13689;48.590;7.752;2022-11-20T08:27:21;9.40;88.50
25871;DHT22;13689;48.590;7.752;2022-11-20T08:29:47;9.40;88.40
25871;DHT22;13689;48.590;7.752;2022-11-20T08:32:12;9.40;88.50
25871;DHT22;13689;48.590;7.752;2022-11-20T08:34:38;9.40;88.50
25871;DHT22;13689;48.590;7.752;2022-11-20T08:37:03;9.40;88.50
25871;DHT22;13689;48.590;7.752;2022-11-20T08:39:29;9.30;88.40
25871;DHT22;13689;48.590;7.752;2022-11-20T08:41:54;9.30;88.60
25871;DHT22;13689;48.590;7.752;2022-11-20T08:44:20;9.30;88.70
25871;DHT22;13689;48.590;7.752;2022-11-20T08:46:45;9.40;88.70
25871;DHT22;13689;48.590;7.752;2022-11-20T08:49:12;9.40;88.50
25871;DHT22;13689;48.590;7.752;2022-11-20T08:51:39;9.30;88.50
25871;DHT22;13689;48.590;7.752;2022-11-20T08:54:05;9.40;88.60
25871;DHT22;13689;48.590;7.752;2022-11-20T08:56:30;9.40;88.60
25871;DHT22;13689;48.590;7.752;2022-11-20T08:58:56;9.40;88.60
25871;DHT22;13689;48.590;7.752;2022-11-20T09:01:22;9.40;88.70
25871;DHT22;13689;48.590;7.752;2022-11-20T09:03:48;9.50;89.40
25871;DHT22;13689;48.590;7.752;2022-11-20T09:06:14;9.50;88.60
25871;DHT22;13689;48.590;7.752;2022-11-20T09:08:40;9.60;88.60
25871;DHT22;13689;48.590;7.752;2022-11-20T09:11:07;9.60;88.50
25871;DHT22;13689;48.590;7.752;2022-11-20T09:13:33;9.60;88.50
25871;DHT22;13689;48.590;7.752;2022-11-20T09:16:02;9.60;88.50
25871;DHT22;13689;48.590;7.752;2022-11-20T09:18:29;9.60;88.50
25871;DHT22;13689;48.590;7.752;2022-11-20T09:21:00;9.70;88.60
25871;DHT22;13689;48.590;7.752;2022-11-20T09:23:27;9.80;88.70
25871;DHT22;13689;48.590;7.752;2022-11-20T09:25:56;9.90;88.40
25871;DHT22;13689;48.590;7.752;2022-11-20T09:28:25;10.00;88.30
25871;DHT22;13689;48.590;7.752;2022-11-20T09:30:50;10.20;88.20
25871;DHT22;13689;48.590;7.752;2022-11-20T09:33:16;10.20;87.80
25871;DHT22;13689;48.590;7.752;2022-11-20T09:35:42;10.20;87.80
25871;DHT22;13689;48.590;7.752;2022-11-20T09:38:09;10.20;87.70
25871;DHT22;13689;48.590;7.752;2022-11-20T09:40:37;10.20;87.80
25871;DHT22;13689;48.590;7.752;2022-11-20T09:43:07;10.20;87.90
25871;DHT22;13689;48.590;7.752;2022-11-20T09:56:10;12.20;86.60
25871;DHT22;13689;48.590;7.752;2022-11-20T09:58:40;13.90;84.20
25871;DHT22;13689;48.590;7.752;2022-11-20T10:01:17;14.60;81.60
25871;DHT22;13689;48.590;7.752;2022-11-20T10:03:57;14.30;80.90
25871;DHT22;13689;48.590;7.752;2022-11-20T10:06:28;14.10;81.50
25871;DHT22;13689;48.590;7.752;2022-11-20T10:08:58;14.00;80.60
25871;DHT22;13689;48.590;7.752;2022-11-20T10:11:29;13.40;81.40
25871;DHT22;13689;48.590;7.752;2022-11-20T10:21:53;12.10;82.40
25871;DHT22;13689;48.590;7.752;2022-11-20T10:26:59;11.70;81.90
25871;DHT22;13689;48.590;7.752;2022-11-20T10:29:34;11.60;81.60
25871;DHT22;13689;48.590;7.752;2022-11-20T10:32:03;11.50;81.10
25871;DHT22;13689;48.590;7.752;2022-11-20T10:37:08;11.60;80.60
25871;DHT22;13689;48.590;7.752;2022-11-20T10:39:37;11.50;80.10
25871;DHT22;13689;48.590;7.752;2022-11-20T10:42:08;11.60;80.00
25871;DHT22;13689;48.590;7.752;2022-11-20T10:44:35;11.50;79.40
25871;DHT22;13689;48.590;7.752;2022-11-20T10:47:20;11.50;79.30
25871;DHT22;13689;48.590;7.752;2022-11-20T10:49:47;11.50;79.30
25871;DHT22;13689;48.590;7.752;2022-11-20T10:54:44;11.20;78.80
25871;DHT22;13689;48.590;7.752;2022-11-20T11:02:31;10.70;78.90
25871;DHT22;13689;48.590;7.752;2022-11-20T11:04:58;10.70;78.90
25871;DHT22;13689;48.590;7.752;2022-11-20T11:07:27;10.60;78.70
25871;DHT22;13689;48.590;7.752;2022-11-20T11:09:56;10.50;78.40
25871;DHT22;13689;48.590;7.752;2022-11-20T11:12:23;10.50;78.10
25871;DHT22;13689;48.590;7.752;2022-11-20T11:14:50;10.50;78.30
25871;DHT22;13689;48.590;7.752;2022-11-20T11:22:33;10.60;77.50
25871;DHT22;13689;48.590;7.752;2022-11-20T11:24:59;10.60;77.20
25871;DHT22;13689;48.590;7.752;2022-11-20T11:27:25;10.60;76.90
25871;DHT22;13689;48.590;7.752;2022-11-20T11:29:50;10.70;76.80
25871;DHT22;13689;48.590;7.752;2022-11-20T11:32:26;10.80;76.60
25871;DHT22;13689;48.590;7.752;2022-11-20T11:35:02;10.90;76.30
25871;DHT22;13689;48.590;7.752;2022-11-20T11:37:32;11.00;76.10
25871;DHT22;13689;48.590;7.752;2022-11-20T11:39:58;11.00;76.00
25871;DHT22;13689;48.590;7.752;2022-11-20T11:42:23;11.00;75.80
25871;DHT22;13689;48.590;7.752;2022-11-20T11:44:49;11.10;75.70
25871;DHT22;13689;48.590;7.752;2022-11-20T11:47:34;11.20;75.50
25871;DHT22;13689;48.590;7.752;2022-11-20T11:55:04;11.30;74.10
25871;DHT22;13689;48.590;7.752;2022-11-20T12:00:14;11.30;73.80
25871;DHT22;13689;48.590;7.752;2022-11-20T12:07:41;11.20;72.80
25871;DHT22;13689;48.590;7.752;2022-11-20T12:10:19;11.10;72.70
25871;DHT22;13689;48.590;7.752;2022-11-20T12:12:45;11.10;72.40
25871;DHT22;13689;48.590;7.752;2022-11-20T12:15:16;11.10;72.40
25871;DHT22;13689;48.590;7.752;2022-11-20T12:17:44;11.20;72.10
25871;DHT22;13689;48.590;7.752;2022-11-20T12:20:13;11.30;71.40
25871;DHT22;13689;48.590;7.752;2022-11-20T12:22:50;11.30;70.80
25871;DHT22;13689;48.590;7.752;2022-11-20T12:25:20;11.40;70.40
25871;DHT22;13689;48.590;7.752;2022-11-20T12:30:28;11.30;70.10
25871;DHT22;13689;48.590;7.752;2022-11-20T12:36:32;11.30;70.20
25871;DHT22;13689;48.590;7.752;2022-11-20T12:48:41;11.50;68.10
25871;DHT22;13689;48.590;7.752;2022-11-20T12:53:46;11.60;67.60
25871;DHT22;13689;48.590;7.752;2022-11-20T13:01:53;11.60;66.90
25871;DHT22;13689;48.590;7.752;2022-11-20T13:07:01;11.60;66.60
25871;DHT22;13689;48.590;7.752;2022-11-20T13:09:27;11.60;66.60
25871;DHT22;13689;48.590;7.752;2022-11-20T13:19:16;11.60;66.10
25871;DHT22;13689;48.590;7.752;2022-11-20T13:21:43;11.60;65.80
25871;DHT22;13689;48.590;7.752;2022-11-20T13:26:44;11.50;65.90
25871;DHT22;13689;48.590;7.752;2022-11-20T13:29:16;11.40;66.00
25871;DHT22;13689;48.590;7.752;2022-11-20T13:31:44;11.30;65.70
25871;DHT22;13689;48.590;7.752;2022-11-20T13:34:14;11.30;65.70
25871;DHT22;13689;48.590;7.752;2022-11-20T13:36:49;11.20;65.40
25871;DHT22;13689;48.590;7.752;2022-11-20T13:39:29;11.20;65.50
25871;DHT22;13689;48.590;7.752;2022-11-20T13:41:59;11.20;65.50
25871;DHT22;13689;48.590;7.752;2022-11-20T13:44:46;11.20;65.40
25871;DHT22;13689;48.590;7.752;2022-11-20T13:47:25;11.20;65.40
25871;DHT22;13689;48.590;7.752;2022-11-20T13:49:52;11.20;65.40
25871;DHT22;13689;48.590;7.752;2022-11-20T14:00:13;11.10;65.30
25871;DHT22;13689;48.590;7.752;2022-11-20T14:02:39;11.10;65.20
25871;DHT22;13689;48.590;7.752;2022-11-20T14:05:05;11.00;65.10
25871;DHT22;13689;48.590;7.752;2022-11-20T14:07:40;11.00;65.10
25871;DHT22;13689;48.590;7.752;2022-11-20T14:10:18;11.00;65.30
25871;DHT22;13689;48.590;7.752;2022-11-20T14:12:44;10.90;65.20
25871;DHT22;13689;48.590;7.752;2022-11-20T14:15:23;10.90;65.30
25871;DHT22;13689;48.590;7.752;2022-11-20T14:17:49;10.90;65.30
25871;DHT22;13689;48.590;7.752;2022-11-20T14:20:14;10.90;65.40
25871;DHT22;13689;48.590;7.752;2022-11-20T14:22:47;10.80;65.40
25871;DHT22;13689;48.590;7.752;2022-11-20T14:27:43;10.80;65.50
25871;DHT22;13689;48.590;7.752;2022-11-20T14:30:12;10.80;65.60
25871;DHT22;13689;48.590;7.752;2022-11-20T14:32:39;10.80;65.60
25871;DHT22;13689;48.590;7.752;2022-11-20T14:35:08;10.80;65.80
25871;DHT22;13689;48.590;7.752;2022-11-20T14:37:36;10.80;65.80
25871;DHT22;13689;48.590;7.752;2022-11-20T14:40:02;10.80;65.90
25871;DHT22;13689;48.590;7.752;2022-11-20T14:42:30;10.80;66.00
25871;DHT22;13689;48.590;7.752;2022-11-20T14:44:56;10.80;65.90
25871;DHT22;13689;48.590;7.752;2022-11-20T14:47:26;10.70;65.90
25871;DHT22;13689;48.590;7.752;2022-11-20T14:49:53;10.70;66.00
25871;DHT22;13689;48.590;7.752;2022-11-20T14:52:20;10.70;66.10
25871;DHT22;13689;48.590;7.752;2022-11-20T14:54:46;10.70;66.20
25871;DHT22;13689;48.590;7.752;2022-11-20T14:57:24;10.70;66.20
25871;DHT22;13689;48.590;7.752;2022-11-20T14:59:51;10.60;66.00
25871;DHT22;13689;48.590;7.752;2022-11-20T15:02:16;10.60;66.80
25871;DHT22;13689;48.590;7.752;2022-11-20T15:04:58;10.60;66.00
25871;DHT22;13689;48.590;7.752;2022-11-20T15:07:29;10.60;66.00
25871;DHT22;13689;48.590;7.752;2022-11-20T15:10:01;10.60;66.00
25871;DHT22;13689;48.590;7.752;2022-11-20T15:12:28;10.50;66.00
25871;DHT22;13689;48.590;7.752;2022-11-20T15:14:54;10.50;66.00
25871;DHT22;13689;48.590;7.752;2022-11-20T15:17:20;10.50;66.10
25871;DHT22;13689;48.590;7.752;2022-11-20T15:19:45;10.40;66.00
25871;DHT22;13689;48.590;7.752;2022-11-20T15:22:11;10.40;66.10
25871;DHT22;13689;48.590;7.752;2022-11-20T15:24:38;10.40;66.10
25871;DHT22;13689;48.590;7.752;2022-11-20T15:27:03;10.40;66.20
25871;DHT22;13689;48.590;7.752;2022-11-20T15:29:29;10.40;66.20
25871;DHT22;13689;48.590;7.752;2022-11-20T15:31:54;10.40;66.30
25871;DHT22;13689;48.590;7.752;2022-11-20T15:34:21;10.40;66.30
25871;DHT22;13689;48.590;7.752;2022-11-20T15:36:47;10.40;66.30
25871;DHT22;13689;48.590;7.752;2022-11-20T15:39:12;10.50;66.30
25871;DHT22;13689;48.590;7.752;2022-11-20T15:41:38;10.40;66.40
25871;DHT22;13689;48.590;7.752;2022-11-20T15:44:04;10.50;66.50
25871;DHT22;13689;48.590;7.752;2022-11-20T15:46:33;10.40;66.50
25871;DHT22;13689;48.590;7.752;2022-11-20T15:49:03;10.40;66.50
25871;DHT22;13689;48.590;7.752;2022-11-20T15:51:36;10.50;66.60
25871;DHT22;13689;48.590;7.752;2022-11-20T15:54:09;10.40;66.60
25871;DHT22;13689;48.590;7.752;2022-11-20T15:56:35;10.40;66.60
25871;DHT22;13689;48.590;7.752;2022-11-20T15:59:01;10.40;66.70
25871;DHT22;13689;48.590;7.752;2022-11-20T16:01:26;10.40;66.80
25871;DHT22;13689;48.590;7.752;2022-11-20T16:03:52;10.40;66.80
25871;DHT22;13689;48.590;7.752;2022-11-20T16:06:17;10.40;66.90
25871;DHT22;13689;48.590;7.752;2022-11-20T16:08:43;10.40;66.80
25871;DHT22;13689;48.590;7.752;2022-11-20T16:11:12;10.40;66.90
25871;DHT22;13689;48.590;7.752;2022-11-20T16:13:38;10.40;66.80
25871;DHT22;13689;48.590;7.752;2022-11-20T16:16:23;10.40;66.90
25871;DHT22;13689;48.590;7.752;2022-11-20T16:18:51;10.40;67.00
25871;DHT22;13689;48.590;7.752;2022-11-20T16:21:16;10.30;67.00
25871;DHT22;13689;48.590;7.752;2022-11-20T16:23:42;10.30;67.10
25871;DHT22;13689;48.590;7.752;2022-11-20T16:26:17;10.30;67.10
25871;DHT22;13689;48.590;7.752;2022-11-20T16:28:43;10.30;67.30
25871;DHT22;13689;48.590;7.752;2022-11-20T16:31:13;10.30;67.30
25871;DHT22;13689;48.590;7.752;2022-11-20T16:33:39;10.40;67.50
25871;DHT22;13689;48.590;7.752;2022-11-20T16:36:11;10.30;67.50
25871;DHT22;13689;48.590;7.752;2022-11-20T16:38:36;10.30;67.60
25871;DHT22;13689;48.590;7.752;2022-11-20T16:41:02;10.30;67.70
25871;DHT22;13689;48.590;7.752;2022-11-20T16:43:28;10.30;67.90
25871;DHT22;13689;48.590;7.752;2022-11-20T16:45:53;10.30;68.00
25871;DHT22;13689;48.590;7.752;2022-11-20T16:48:19;10.20;68.10
25871;DHT22;13689;48.590;7.752;2022-11-20T16:50:45;10.20;68.40
25871;DHT22;13689;48.590;7.752;2022-11-20T16:53:12;10.20;68.50
25871;DHT22;13689;48.590;7.752;2022-11-20T16:55:37;10.20;68.70
25871;DHT22;13689;48.590;7.752;2022-11-20T16:58:03;10.20;68.80
25871;DHT22;13689;48.590;7.752;2022-11-20T17:00:28;10.20;68.90
25871;DHT22;13689;48.590;7.752;2022-11-20T17:02:54;10.30;69.10
25871;DHT22;13689;48.590;7.752;2022-11-20T17:05:19;10.20;69.10
25871;DHT22;13689;48.590;7.752;2022-11-20T17:07:45;10.20;69.20
25871;DHT22;13689;48.590;7.752;2022-11-20T17:10:10;10.20;69.40
25871;DHT22;13689;48.590;7.752;2022-11-20T17:12:36;10.20;69.70
25871;DHT22;13689;48.590;7.752;2022-11-20T17:15:01;10.20;69.90
25871;DHT22;13689;48.590;7.752;2022-11-20T17:17:27;10.20;70.10
25871;DHT22;13689;48.590;7.752;2022-11-20T17:19:52;10.20;70.30
25871;DHT22;13689;48.590;7.752;2022-11-20T17:22:18;10.20;70.50